Time;durP1;ratioP1;P1;durP2;ratioP2;P2;SDS_P1;SDS_P2;PMS_P1;PMS_P2;Temp;Humidity;BMP_temperature;BMP_pressure;BME280_temperature;BME280_humidity;BME280_pressure;Samples;Min_cycle;Max_cycle;Signal;HPM_P1;HPM_P2
2021/10/12 00:02:56;;;;;;;38.98;19.55;;;;;;;6.19;66.92;100230.06;1715817;83;21303;-75
2021/10/12 00:06:01;;;;;;;32.33;18.50;;;;;;;6.19;66.96;100224.13;1717114;83;22642;-75
2021/10/12 00:09:06;;;;;;;44.70;18.57;;;;;;;6.18;67.16;100225.14;1717099;83;22591;-75
2021/10/12 00:12:12;;;;;;;44.63;18.50;;;;;;;6.20;67.42;100222.27;1717108;83;21181;-76
2021/10/12 00:15:18;;;;;;;37.75;19.00;;;;;;;6.20;67.56;100213.61;1717115;83;21355;-75
2021/10/12 00:18:24;;;;;;;42.38;19.82;;;;;;;6.20;67.86;100210.89;1717603;83;21316;-75
2021/10/12 00:21:32;;;;;;;43.55;18.87;;;;;;;6.22;68.06;100202.11;1716522;83;21335;-75
2021/10/12 00:24:38;;;;;;;37.42;19.17;;;;;;;6.25;68.17;100198.22;1717298;83;21831;-75
2021/10/12 00:27:44;;;;;;;43.30;19.02;;;;;;;6.26;68.26;100202.16;1716046;83;21350;-76
2021/10/12 00:30:52;;;;;;;43.58;19.60;;;;;;;6.26;68.50;100195.38;1715806;83;21272;-75
2021/10/12 00:33:58;;;;;;;37.50;18.98;;;;;;;6.29;68.66;100195.05;1715538;83;21783;-76
2021/10/12 00:37:04;;;;;;;38.00;18.80;;;;;;;6.32;68.62;100196.12;1716388;83;21347;-75
2021/10/12 00:40:12;;;;;;;39.90;19.37;;;;;;;6.36;68.68;100199.39;1715836;83;21760;-75
2021/10/12 00:43:18;;;;;;;34.25;18.40;;;;;;;6.38;68.60;100205.01;1717994;83;21205;-76
2021/10/12 00:46:24;;;;;;;42.98;19.17;;;;;;;6.42;68.63;100203.36;1716940;83;21277;-75
2021/10/12 00:49:30;;;;;;;33.95;18.98;;;;;;;6.47;68.59;100199.67;1716964;83;21316;-76
2021/10/12 00:52:36;;;;;;;34.83;17.73;;;;;;;6.48;68.38;100198.66;1716922;83;21799;-75
2021/10/12 00:55:41;;;;;;;36.08;17.45;;;;;;;6.50;68.28;100199.38;1715941;83;21859;-75
2021/10/12 00:58:46;;;;;;;31.12;17.92;;;;;;;6.49;68.20;100194.94;1716485;83;21319;-76
2021/10/12 01:01:54;;;;;;;43.35;17.82;;;;;;;6.48;68.21;100193.23;1715369;83;21752;-75
2021/10/12 01:05:00;;;;;;;34.03;17.90;;;;;;;6.48;68.16;100187.80;1716251;83;21649;-76
2021/10/12 01:08:07;;;;;;;34.60;17.95;;;;;;;6.44;68.20;100190.46;1715915;83;21248;-76
2021/10/12 01:11:13;;;;;;;43.73;19.07;;;;;;;6.43;68.38;100184.69;1717517;83;21248;-75
2021/10/12 01:14:20;;;;;;;35.20;19.48;;;;;;;6.42;68.46;100184.34;1716972;83;21859;-75
2021/10/12 01:17:26;;;;;;;38.90;18.60;;;;;;;6.40;68.51;100181.78;1716324;83;21260;-76
2021/10/12 01:20:31;;;;;;;41.98;20.25;;;;;;;6.37;68.46;100176.14;1715420;83;21724;-76
2021/10/12 01:23:38;;;;;;;39.83;18.15;;;;;;;6.34;68.32;100172.36;1706054;83;21217;-75
2021/10/12 01:26:43;;;;;;;39.75;17.82;;;;;;;6.30;68.44;100176.89;1716785;83;21244;-75
2021/10/12 01:29:49;;;;;;;35.98;18.90;;;;;;;6.25;68.78;100167.84;1717681;83;21213;-75
2021/10/12 01:32:54;;;;;;;36.85;18.50;;;;;;;6.21;69.20;100175.08;1716724;83;21311;-76
2021/10/12 01:36:00;;;;;;;47.73;20.80;;;;;;;6.18;69.46;100172.69;1716986;83;21355;-76
2021/10/12 01:39:06;;;;;;;37.08;19.10;;;;;;;6.17;69.53;100170.98;1715702;83;21338;-75
2021/10/12 01:42:11;;;;;;;37.10;20.48;;;;;;;6.14;69.23;100176.20;1716862;83;21892;-75
2021/10/12 01:45:16;;;;;;;40.00;17.90;;;;;;;6.11;69.10;100173.77;1717440;83;21265;-76
2021/10/12 01:48:22;;;;;;;35.68;17.32;;;;;;;6.08;69.09;100164.59;1716154;83;21363;-76
2021/10/12 01:51:27;;;;;;;43.50;19.23;;;;;;;6.00;69.28;100154.98;1716965;83;21832;-76
2021/10/12 01:54:32;;;;;;;42.65;19.92;;;;;;;5.91;69.52;100151.27;1715768;83;21283;-75
2021/10/12 01:57:38;;;;;;;34.78;18.12;;;;;;;5.84;70.03;100155.61;1716837;83;21907;-76
2021/10/12 02:00:43;;;;;;;38.13;19.02;;;;;;;5.80;70.61;100153.69;1716486;83;21395;-76
2021/10/12 02:03:49;;;;;;;42.75;19.20;;;;;;;5.78;71.13;100149.39;1719731;83;21319;-75
2021/10/12 02:06:55;;;;;;;33.25;19.25;;;;;;;5.78;71.37;100151.61;1719270;83;21665;-76
2021/10/12 02:10:00;;;;;;;42.38;18.23;;;;;;;5.79;71.79;100147.06;1717715;83;21350;-76
2021/10/12 02:13:06;;;;;;;36.53;19.40;;;;;;;5.78;72.04;100144.82;1718998;83;21374;-76
2021/10/12 02:16:13;;;;;;;38.10;20.10;;;;;;;5.77;72.33;100136.33;1719175;83;21323;-75
2021/10/12 02:19:19;;;;;;;36.85;19.82;;;;;;;5.76;72.83;100136.49;1717909;83;21862;-76
2021/10/12 02:22:24;;;;;;;45.78;19.42;;;;;;;5.74;73.50;100135.30;1718958;83;21310;-76
2021/10/12 02:25:30;;;;;;;40.60;19.77;;;;;;;5.76;74.13;100133.78;1719203;83;21303;-75
2021/10/12 02:28:36;;;;;;;40.50;20.08;;;;;;;5.77;74.57;100126.83;1718449;83;21406;-75
2021/10/12 02:31:41;;;;;;;38.33;19.85;;;;;;;5.79;74.73;100125.34;1718016;83;21859;-75
2021/10/12 02:34:48;;;;;;;31.93;17.75;;;;;;;5.78;74.77;100116.32;1717915;83;21362;-76
2021/10/12 02:40:21;;;;;;;34.38;17.87;;;;;;;5.76;74.72;100112.06;1857358;76;28043;-75
2021/10/12 02:43:27;;;;;;;35.63;18.75;;;;;;;5.71;74.76;100107.59;1750846;82;21291;-75
2021/10/12 02:46:31;;;;;;;41.33;19.92;;;;;;;5.70;74.91;100121.67;1767274;81;21724;-75
2021/10/12 02:49:37;;;;;;;42.43;21.42;;;;;;;5.70;74.97;100124.38;1749834;82;21290;-75
2021/10/12 02:52:42;;;;;;;39.08;20.35;;;;;;;5.69;74.80;100115.86;1767227;81;21768;-75
2021/10/12 02:55:48;;;;;;;39.60;20.35;;;;;;;5.69;74.38;100105.52;1750810;82;21298;-75
2021/10/12 02:58:56;;;;;;;42.43;20.17;;;;;;;5.64;74.04;100101.89;1766630;81;21201;-75
2021/10/12 03:02:02;;;;;;;48.50;21.30;;;;;;;5.59;74.19;100098.77;1749307;82;21305;-74
2021/10/12 03:05:07;;;;;;;34.55;18.07;;;;;;;5.52;74.72;100090.89;1736859;82;21364;-75
2021/10/12 03:08:12;;;;;;;38.98;18.92;;;;;;;5.44;75.46;100091.63;1750912;82;21279;-75
2021/10/12 03:11:18;;;;;;;41.90;18.17;;;;;;;5.40;75.99;100091.56;1736977;82;21763;-75
2021/10/12 03:14:24;;;;;;;40.88;19.25;;;;;;;5.39;76.51;100090.72;1750717;82;21882;-75
2021/10/12 03:17:30;;;;;;;53.38;19.42;;;;;;;5.40;76.73;100091.56;1715388;82;21189;-75
2021/10/12 03:20:36;;;;;;;44.10;19.62;;;;;;;5.40;76.83;100087.50;1725905;82;21346;-75
2021/10/12 03:23:41;;;;;;;40.75;19.77;;;;;;;5.39;77.00;100086.65;1716960;82;21298;-75
2021/10/12 03:26:47;;;;;;;39.00;20.12;;;;;;;5.38;77.30;100079.52;1715709;83;21311;-75
2021/10/12 03:29:52;;;;;;;43.58;20.90;;;;;;;5.38;77.56;100086.30;1716708;83;21307;-75
2021/10/12 03:32:58;;;;;;;41.45;19.87;;;;;;;5.39;77.87;100094.78;1707450;84;21796;-75
2021/10/12 03:36:13;;;;;;;42.13;20.52;;;;;;;5.42;78.00;100096.36;1721038;83;21477;-75
2021/10/12 03:39:10;;;;;;;48.23;20.55;;;;;;;5.44;77.88;100089.42;1705637;83;21941;-75
2021/10/12 03:42:16;;;;;;;41.92;20.45;;;;;;;5.45;77.58;100089.77;1758198;81;21160;-75
2021/10/12 03:45:20;;;;;;;47.03;20.77;;;;;;;5.43;77.27;100089.92;1769526;81;21275;-75
2021/10/12 03:48:26;;;;;;;46.28;20.55;;;;;;;5.41;77.03;100095.13;1771610;81;21185;-76
2021/10/12 03:51:32;;;;;;;37.55;20.17;;;;;;;5.33;76.77;100088.61;1770547;81;21170;-75
2021/10/12 03:54:37;;;;;;;73.07;22.02;;;;;;;5.25;77.02;100090.34;1770014;81;21371;-75
2021/10/12 03:57:43;;;;;;;107.87;24.77;;;;;;;5.21;76.96;100094.34;1769876;81;21911;-75
2021/10/12 04:00:48;;;;;;;75.90;21.23;;;;;;;5.14;76.88;100095.45;1769621;81;21320;-75
2021/10/12 04:03:55;;;;;;;57.88;20.50;;;;;;;5.06;76.57;100095.31;1771596;81;21280;-75
2021/10/12 04:07:01;;;;;;;48.58;19.90;;;;;;;4.96;76.64;100105.33;1771239;81;21293;-75
2021/10/12 04:10:07;;;;;;;52.53;21.12;;;;;;;4.88;77.06;100101.98;1765528;81;21265;-75
2021/10/12 04:13:14;;;;;;;49.33;20.60;;;;;;;4.85;76.98;100107.20;1761237;81;21154;-75
2021/10/12 04:16:19;;;;;;;68.02;22.17;;;;;;;4.81;76.80;100101.72;1761369;81;21177;-75
2021/10/12 04:19:24;;;;;;;59.15;20.37;;;;;;;4.79;76.79;100104.20;1760992;81;21273;-75
2021/10/12 04:22:29;;;;;;;44.23;21.45;;;;;;;4.79;76.98;100102.84;1741505;81;21814;-76
2021/10/12 04:25:34;;;;;;;48.05;20.80;;;;;;;4.82;77.66;100108.84;1760748;81;21256;-76
2021/10/12 04:28:39;;;;;;;53.65;21.20;;;;;;;4.86;77.22;100106.20;1759664;81;21304;-75
2021/10/12 04:31:46;;;;;;;51.85;20.80;;;;;;;4.85;77.19;100099.08;1763217;81;21281;-75
2021/10/12 04:34:57;;;;;;;49.73;19.60;;;;;;;4.85;77.71;100097.72;1766948;81;21268;-77
2021/10/12 04:38:03;;;;;;;42.75;20.57;;;;;;;4.89;78.22;100099.61;1760586;81;21287;-76
2021/10/12 04:41:08;;;;;;;46.95;19.75;;;;;;;4.95;78.89;100100.41;1769107;81;21703;-77
2021/10/12 04:44:15;;;;;;;46.65;20.40;;;;;;;5.04;79.11;100093.27;1755916;81;21290;-77
2021/10/12 04:47:21;;;;;;;43.70;19.82;;;;;;;5.12;79.53;100091.51;1740796;82;21910;-77
2021/10/12 04:50:27;;;;;;;39.45;20.20;;;;;;;5.20;79.83;100088.08;1760915;81;21193;-77
2021/10/12 04:53:32;;;;;;;41.35;18.20;;;;;;;5.30;80.13;100089.39;1763316;81;21314;-77
2021/10/12 04:56:40;;;;;;;39.98;19.10;;;;;;;5.42;80.43;100084.66;1748660;81;21248;-77
2021/10/12 04:59:46;;;;;;;49.83;21.35;;;;;;;5.54;80.85;100082.09;1755110;81;21595;-77
2021/10/12 05:02:55;;;;;;;47.88;20.70;;;;;;;5.67;81.12;100078.54;1757910;81;21306;-77
2021/10/12 05:06:02;;;;;;;43.05;20.95;;;;;;;5.83;81.42;100080.11;1741170;81;21294;-77
2021/10/12 05:09:11;;;;;;;34.33;17.30;;;;;;;6.01;81.83;100073.88;1763358;79;21299;-77
2021/10/12 05:12:16;;;;;;;47.08;20.57;;;;;;;6.16;82.02;100073.69;1755533;79;21248;-76
2021/10/12 05:15:27;;;;;;;38.33;19.35;;;;;;;6.28;82.64;100065.68;1759877;79;21888;-81
2021/10/12 05:18:34;;;;;;;40.10;18.92;;;;;;;6.42;82.73;100067.52;1749625;81;21184;-78
2021/10/12 05:21:49;;;;;;;40.00;18.00;;;;;;;6.61;82.93;100065.98;1846007;76;22577;-78
2021/10/12 05:24:57;;;;;;;32.05;17.55;;;;;;;6.66;83.05;100065.00;1816107;77;21306;-77
2021/10/12 05:28:02;;;;;;;44.25;18.30;;;;;;;6.79;83.02;100054.59;1816339;77;21693;-75
2021/10/12 05:31:10;;;;;;;36.35;18.25;;;;;;;6.93;83.03;100060.47;1813213;77;21718;-76
2021/10/12 05:34:17;;;;;;;35.10;17.02;;;;;;;7.04;82.97;100054.24;1818653;77;21214;-78
2021/10/12 05:37:26;;;;;;;36.38;17.98;;;;;;;7.19;82.76;100061.30;1814572;77;21310;-76
2021/10/12 05:40:32;;;;;;;31.02;15.93;;;;;;;7.33;82.62;100059.34;1814131;77;21224;-78
2021/10/12 05:43:38;;;;;;;44.33;19.07;;;;;;;7.49;82.42;100055.88;1786496;77;21200;-78
2021/10/12 05:46:43;;;;;;;42.20;17.50;;;;;;;7.61;82.29;100050.98;1815766;77;21354;-78
2021/10/12 05:49:50;;;;;;;45.67;18.73;;;;;;;7.75;82.26;100057.68;1819911;77;21906;-76
2021/10/12 05:56:23;;;;;;;52.23;20.82;;;;;;;8.02;81.67;100056.59;1787182;77;21177;-77
2021/10/12 05:59:31;;;;;;;41.37;20.68;;;;;;;8.14;81.24;100046.58;1818464;77;21275;-75
2021/10/12 06:02:38;;;;;;;40.92;22.02;;;;;;;8.28;81.06;100053.73;1765492;78;21799;-78
2021/10/12 06:05:44;;;;;;;45.30;20.92;;;;;;;8.41;80.70;100050.89;1785704;78;21282;-76
2021/10/12 06:08:53;;;;;;;58.35;24.25;;;;;;;8.53;80.38;100054.16;1784574;78;21144;-76
2021/10/12 06:12:01;;;;;;;50.55;24.07;;;;;;;8.67;80.28;100050.75;1792553;79;21303;-75
2021/10/12 06:15:09;;;;;;;53.68;25.48;;;;;;;8.82;80.07;100051.43;1786993;79;21318;-76
2021/10/12 06:18:19;;;;;;;62.40;27.50;;;;;;;8.94;79.65;100049.55;1783708;78;21362;-76
2021/10/12 06:21:26;;;;;;;84.40;36.30;;;;;;;9.06;79.31;100046.45;1771860;79;21223;-76
2021/10/12 06:24:36;;;;;;;83.90;35.08;;;;;;;9.19;79.02;100052.23;1738317;80;21232;-76
2021/10/12 06:27:44;;;;;;;89.37;38.60;;;;;;;9.31;78.82;100050.83;1689839;82;21210;-76
2021/10/12 06:30:55;;;;;;;80.97;35.52;;;;;;;9.41;78.48;100045.17;1711920;83;21255;-77
2021/10/12 06:34:01;;;;;;;72.40;34.63;;;;;;;9.53;78.36;100044.30;1688831;83;21312;-76
2021/10/12 06:37:11;;;;;;;81.92;35.50;;;;;;;9.64;78.19;100039.28;1723307;82;21767;-76
2021/10/12 06:40:19;;;;;;;82.80;33.35;;;;;;;9.79;78.09;100041.30;1694102;82;21222;-76
2021/10/12 06:43:26;;;;;;;64.92;30.05;;;;;;;9.92;77.78;100039.67;1714037;82;21832;-76
2021/10/12 06:46:33;;;;;;;75.30;30.95;;;;;;;10.07;77.20;100042.52;1714486;82;21353;-76
2021/10/12 06:49:42;;;;;;;72.75;34.90;;;;;;;10.18;76.90;100036.63;1705996;82;21183;-76
2021/10/12 06:52:55;;;;;;;91.20;35.52;;;;;;;10.32;76.39;100040.50;1707275;83;21244;-76
2021/10/12 06:56:04;;;;;;;73.47;35.28;;;;;;;10.45;76.27;100044.02;1684059;82;21929;-75
2021/10/12 06:59:13;;;;;;;;;;;;;;;10.63;75.97;100045.05;1676273;83;21216;-75
2021/10/12 07:02:23;;;;;;;85.55;37.13;;;;;;;10.78;75.21;100044.61;1679698;82;20203;-75
2021/10/12 07:05:29;;;;;;;79.53;34.13;;;;;;;10.88;74.75;100037.51;1710526;83;21307;-75
2021/10/12 07:08:35;;;;;;;84.85;37.33;;;;;;;10.99;74.53;100033.80;1710498;81;21288;-76
2021/10/12 07:11:47;;;;;;;86.00;36.03;;;;;;;11.11;73.75;100040.20;1713548;81;21278;-75
2021/10/12 07:15:02;;;;;;;105.55;36.73;;;;;;;11.17;73.58;100037.55;1708109;83;21342;-76
2021/10/12 07:18:11;;;;;;;67.53;31.65;;;;;;;11.32;73.41;100033.98;1705901;83;21216;-77
2021/10/12 07:21:18;;;;;;;82.30;35.08;;;;;;;11.46;73.29;100036.72;1707787;83;21919;-76
2021/10/12 07:24:24;;;;;;;102.22;40.95;;;;;;;11.56;72.32;100024.63;1730107;82;21501;-77
2021/10/12 07:27:29;;;;;;;97.92;40.35;;;;;;;11.66;72.31;100023.81;1725469;82;21344;-77
2021/10/12 07:30:37;;;;;;;104.72;42.05;;;;;;;11.75;71.79;100026.78;1745630;80;21200;-76
2021/10/12 07:33:42;;;;;;;72.03;33.85;;;;;;;11.83;71.49;100030.83;1730344;80;22209;-77
2021/10/12 07:36:49;;;;;;;93.22;39.65;;;;;;;11.90;71.15;100029.04;1694177;82;21287;-77
2021/10/12 07:39:57;;;;;;;111.25;42.27;;;;;;;11.93;70.93;100026.42;1746114;80;21133;-76
2021/10/12 07:43:08;;;;;;;107.07;43.35;;;;;;;11.97;71.08;100024.47;1669236;82;21218;-77
2021/10/12 07:46:13;;;;;;;95.97;39.58;;;;;;;12.09;70.67;100033.55;1728491;80;21168;-77
2021/10/12 07:49:18;;;;;;;106.67;44.50;;;;;;;12.21;70.45;100019.16;1728154;80;21162;-75
2021/10/12 07:52:23;;;;;;;95.62;41.83;;;;;;;12.32;70.23;100019.16;1712011;82;21835;-76
2021/10/12 07:58:36;;;;;;;92.12;35.43;;;;;;;12.46;69.54;100008.66;1733694;81;21145;-75
2021/10/12 08:01:43;;;;;;;72.42;31.20;;;;;;;12.56;69.69;100010.22;1728185;81;22042;-76
2021/10/12 08:04:51;;;;;;;94.03;40.00;;;;;;;12.67;69.70;99999.58;1728338;81;21639;-76
2021/10/12 08:07:57;;;;;;;96.40;40.33;;;;;;;12.82;69.16;99990.41;1727030;82;21157;-77
2021/10/12 08:11:04;;;;;;;100.02;40.88;;;;;;;12.91;68.27;99989.22;1731407;80;21234;-76
2021/10/12 08:14:12;;;;;;;107.00;42.17;;;;;;;12.97;68.08;99983.77;1727126;81;21223;-76
2021/10/12 08:17:17;;;;;;;82.12;35.13;;;;;;;13.08;68.05;99981.02;1724751;82;21947;-76
2021/10/12 08:20:23;;;;;;;86.20;36.23;;;;;;;13.20;67.62;99984.04;1726514;82;21247;-80
2021/10/12 08:23:29;;;;;;;97.65;35.50;;;;;;;13.31;67.29;99971.13;1726734;80;21229;-79
2021/10/12 08:26:39;;;;;;;80.17;32.60;;;;;;;13.45;67.36;99968.78;1709924;80;21274;-75
2021/10/12 08:29:51;;;;;;;90.60;35.28;;;;;;;13.59;66.37;99968.33;1692842;82;21141;-76
2021/10/12 08:32:57;;;;;;;93.90;36.30;;;;;;;13.68;65.99;99963.51;1706548;82;21160;-76
2021/10/12 08:36:03;;;;;;;84.35;32.42;;;;;;;13.72;65.91;99955.17;1732073;81;21163;-76
2021/10/12 08:39:10;;;;;;;63.78;30.80;;;;;;;13.81;65.91;99949.83;1728361;81;21237;-76
2021/10/12 08:42:29;;;;;;;110.57;40.17;;;;;;;13.90;65.29;99951.34;1746063;80;21299;-76
2021/10/12 08:45:37;;;;;;;94.87;40.43;;;;;;;13.96;65.14;99946.38;1747952;80;21695;-78
2021/10/12 08:48:52;;;;;;;102.55;38.48;;;;;;;14.07;64.86;99943.57;1825566;76;22217;-76
2021/10/12 08:51:57;;;;;;;114.95;45.28;;;;;;;14.06;64.88;99934.44;1789884;77;21591;-76
2021/10/12 08:55:03;;;;;;;99.60;44.30;;;;;;;14.17;64.79;99945.91;1790216;77;21274;-76
2021/10/12 08:58:04;;;;;;;90.57;41.55;;;;;;;14.27;64.45;99933.44;1792303;77;21326;-77
2021/10/12 09:01:21;;;;;;;98.40;40.95;;;;;;;14.35;64.26;99929.66;1752788;79;21183;-77
2021/10/12 09:04:25;;;;;;;95.80;44.10;;;;;;;14.48;64.02;99918.66;1772358;79;21344;-77
2021/10/12 09:07:39;;;;;;;98.75;44.35;;;;;;;14.64;63.52;99920.17;1778965;79;21529;-74
2021/10/12 09:10:49;;;;;;;92.90;39.90;;;;;;;14.77;63.83;99913.78;1774146;79;21287;-78
2021/10/12 09:14:07;;;;;;;85.45;38.28;;;;;;;14.91;63.17;99917.37;1769614;79;21979;-75
2021/10/12 09:17:13;;;;;;;96.35;39.63;;;;;;;14.97;63.32;99908.27;1726193;80;21855;-75
2021/10/12 09:20:25;;;;;;;74.10;35.78;;;;;;;15.07;63.20;99898.50;1765831;79;21755;-76
2021/10/12 09:23:30;;;;;;;75.90;32.80;;;;;;;15.16;62.83;99892.23;1772442;80;21306;-76
2021/10/12 09:26:41;;;;;;;72.80;30.90;;;;;;;15.21;62.45;99897.93;1770438;79;21326;-76
2021/10/12 09:29:48;;;;;;;87.00;36.10;;;;;;;15.20;62.06;99890.73;1771035;79;21564;-74
2021/10/12 09:33:13;;;;;;;88.15;39.67;;;;;;;15.21;62.94;99890.20;1771752;80;21322;-75
2021/10/12 09:36:33;;;;;;;110.95;47.13;;;;;;;15.28;62.61;99885.50;1735351;79;21161;-76
2021/10/12 09:39:49;;;;;;;105.15;48.38;;;;;;;15.30;62.57;99872.37;1732763;80;21313;-76
2021/10/12 09:42:56;;;;;;;98.58;45.63;;;;;;;15.40;62.55;99871.91;1774996;80;21224;-75
2021/10/12 09:46:02;;;;;;;105.92;47.30;;;;;;;15.54;61.96;99865.27;1776033;80;21301;-76
2021/10/12 09:49:27;;;;;;;99.70;45.63;;;;;;;15.59;61.76;99855.27;1771739;79;21143;-76
2021/10/12 09:52:31;;;;;;;82.95;37.80;;;;;;;15.71;61.63;99856.81;1775286;80;21161;-76
2021/10/12 09:55:45;;;;;;;109.27;42.25;;;;;;;15.87;61.86;99855.47;1771633;80;21400;-76
2021/10/12 09:58:56;;;;;;;36.85;17.80;;;;;;;16.01;61.25;99850.17;1751679;80;21255;-75
2021/10/12 10:02:01;;;;;;;27.73;12.93;;;;;;;16.12;61.13;99843.08;1769492;80;21314;-76
2021/10/12 10:05:08;;;;;;;44.23;12.85;;;;;;;16.23;60.50;99840.13;1775298;80;21295;-75
2021/10/12 10:08:13;;;;;;;25.60;12.23;;;;;;;16.28;59.76;99841.70;1770872;80;21378;-77
2021/10/12 10:11:20;;;;;;;16.55;9.53;;;;;;;16.32;59.16;99827.20;1767971;79;21187;-76
2021/10/12 10:14:28;;;;;;;18.10;9.13;;;;;;;16.35;59.21;99829.52;1766851;79;21611;-75
2021/10/12 10:17:34;;;;;;;24.23;9.70;;;;;;;16.38;58.89;99824.09;1748687;80;21220;-75
2021/10/12 10:20:41;;;;;;;24.15;10.72;;;;;;;16.44;59.01;99824.56;1771470;79;21280;-75
2021/10/12 10:27:16;;;;;;;24.45;10.38;;;;;;;16.52;58.91;99821.52;1739617;79;21358;-75
2021/10/12 10:30:41;;;;;;;19.25;9.35;;;;;;;16.54;58.67;99815.77;1752650;79;21236;-75
2021/10/12 10:33:49;;;;;;;28.67;11.00;;;;;;;16.58;58.77;99809.55;1745421;80;21195;-75
2021/10/12 10:37:29;;;;;;;26.62;11.05;;;;;;;16.65;58.81;99808.64;1755799;79;21822;-79
2021/10/12 10:40:38;;;;;;;25.47;12.57;;;;;;;16.75;58.63;99803.46;1733181;79;21196;-74
2021/10/12 10:44:07;;;;;;;19.98;10.65;;;;;;;16.85;58.44;99802.42;1745524;79;22222;-74
2021/10/12 10:47:12;;;;;;;29.23;11.50;;;;;;;16.88;57.77;99803.32;1749170;79;21418;-75
2021/10/12 10:50:23;;;;;;;29.57;11.68;;;;;;;16.90;58.15;99794.83;1758054;79;21222;-77
2021/10/12 10:53:46;;;;;;;24.30;11.90;;;;;;;16.94;58.20;99791.38;1754232;79;21192;-75
2021/10/12 10:57:25;;;;;;;28.85;12.25;;;;;;;17.01;57.93;99790.74;1753111;79;21201;-76
2021/10/12 11:00:32;;;;;;;27.13;12.65;;;;;;;16.99;57.70;99783.23;1752769;79;21203;-75
2021/10/12 11:03:42;;;;;;;31.35;12.75;;;;;;;16.90;57.88;99782.39;1755459;79;21319;-78
2021/10/12 11:06:47;;;;;;;25.30;12.60;;;;;;;16.87;58.45;99776.78;1762456;79;21291;-75
2021/10/12 11:09:53;;;;;;;20.68;12.10;;;;;;;16.86;59.05;99775.94;1756717;79;21274;-75
2021/10/12 11:12:59;;;;;;;30.75;13.60;;;;;;;16.93;59.33;99777.23;1757265;79;21442;-76
2021/10/12 11:16:05;;;;;;;30.75;13.88;;;;;;;16.97;59.30;99770.71;1757343;79;21177;-76
2021/10/12 11:19:12;;;;;;;23.30;14.93;;;;;;;17.01;59.24;99772.78;1755214;79;21216;-76
2021/10/12 11:22:17;;;;;;;27.58;14.07;;;;;;;17.00;59.40;99769.72;1755349;79;21435;-76
2021/10/12 11:25:22;;;;;;;30.82;14.85;;;;;;;17.03;59.58;99767.02;1671432;81;21201;-76
2021/10/12 11:28:30;;;;;;;29.45;14.63;;;;;;;17.07;59.93;99764.09;1718079;81;21679;-76
2021/10/12 11:31:37;;;;;;;28.65;15.48;;;;;;;17.15;60.15;99767.09;1717006;81;21382;-75
2021/10/12 11:34:44;;;;;;;32.85;16.50;;;;;;;17.22;59.88;99765.94;1717744;81;21192;-76
2021/10/12 11:38:00;;;;;;;26.70;15.58;;;;;;;17.29;59.69;99758.94;1722625;81;21226;-76
2021/10/12 11:41:05;;;;;;;45.98;16.75;;;;;;;17.40;59.39;99758.13;1711269;83;22441;-76
2021/10/12 11:44:23;;;;;;;31.07;14.40;;;;;;;17.44;59.36;99759.34;1720897;83;21208;-76
2021/10/12 11:47:42;;;;;;;26.42;13.15;;;;;;;17.44;59.14;99757.97;1658321;83;21196;-76
2021/10/12 11:50:49;;;;;;;27.90;15.07;;;;;;;17.39;59.07;99756.45;1691840;81;21172;-76
2021/10/12 11:53:55;;;;;;;23.60;14.38;;;;;;;17.30;59.47;99746.80;1719401;81;21168;-76
2021/10/12 11:57:06;;;;;;;27.62;14.35;;;;;;;17.27;59.47;99755.03;1724188;82;21863;-77
2021/10/12 12:00:08;;;;;;;22.48;13.08;;;;;;;17.20;59.89;99747.89;1722414;82;22230;-78
2021/10/12 12:03:27;;;;;;;27.75;15.20;;;;;;;17.11;60.18;99749.59;1718101;83;21300;-75
2021/10/12 12:06:35;;;;;;;23.98;14.20;;;;;;;16.99;60.55;99747.86;1720119;82;21440;-75
2021/10/12 12:09:41;;;;;;;29.25;17.82;;;;;;;16.87;60.72;99740.88;1722803;82;21225;-75
2021/10/12 12:12:48;;;;;;;35.80;22.65;;;;;;;16.80;61.20;99738.74;1674777;83;21215;-75
2021/10/12 12:15:55;;;;;;;48.20;23.27;;;;;;;16.78;61.57;99736.73;1626211;83;21201;-75
2021/10/12 12:19:02;;;;;;;30.35;13.15;;;;;;;16.84;61.80;99731.15;1716300;81;21211;-76
2021/10/12 12:22:07;;;;;;;21.05;11.08;;;;;;;16.98;61.54;99731.80;1723658;82;21343;-76
2021/10/12 12:25:15;;;;;;;25.68;11.88;;;;;;;17.13;60.88;99730.58;1721223;83;21185;-76
2021/10/12 12:28:21;;;;;;;25.52;11.53;;;;;;;17.21;60.49;99728.30;1721602;83;21749;-76
2021/10/12 12:31:32;;;;;;;25.20;12.63;;;;;;;17.22;60.28;99733.29;1692545;83;21537;-76
2021/10/12 12:34:42;;;;;;;30.90;11.33;;;;;;;17.19;60.09;99729.63;1715733;83;21311;-76
2021/10/12 12:37:48;;;;;;;31.10;11.65;;;;;;;17.17;60.31;99722.09;1712344;83;21248;-75
2021/10/12 12:40:53;;;;;;;29.20;11.12;;;;;;;17.15;60.31;99720.12;1720480;83;21303;-76
2021/10/12 12:44:04;;;;;;;30.48;10.90;;;;;;;17.11;60.39;99716.97;1714778;83;21210;-75
2021/10/12 12:47:12;;;;;;;22.22;10.15;;;;;;;17.06;60.45;99706.62;1722494;83;21236;-75
2021/10/12 12:50:19;;;;;;;26.07;9.95;;;;;;;17.03;60.52;99706.23;1712194;83;21209;-75
2021/10/12 12:53:29;;;;;;;19.67;10.65;;;;;;;16.97;60.45;99699.73;1718692;83;21625;-75
2021/10/12 12:56:41;;;;;;;21.42;11.28;;;;;;;16.92;60.79;99705.11;1720250;83;21314;-75
2021/10/12 12:59:47;;;;;;;22.07;10.32;;;;;;;16.88;60.96;99701.13;1722667;81;21169;-75
2021/10/12 13:03:01;;;;;;;30.40;11.65;;;;;;;16.85;61.15;99699.69;1723660;83;21353;-75
2021/10/12 13:06:10;;;;;;;24.90;10.70;;;;;;;16.86;61.31;99701.91;1723606;83;21332;-75
2021/10/12 13:09:15;;;;;;;18.42;11.50;;;;;;;16.87;61.44;99695.30;1720416;82;21304;-75
2021/10/12 13:12:22;;;;;;;25.12;11.00;;;;;;;16.92;61.57;99702.34;1723897;83;22376;-75
2021/10/12 13:15:28;;;;;;;25.20;11.48;;;;;;;16.96;61.55;99699.42;1720031;83;21295;-75
2021/10/12 13:18:34;;;;;;;19.40;10.60;;;;;;;17.03;61.37;99702.09;1718849;83;21302;-75
2021/10/12 13:21:41;;;;;;;20.43;10.60;;;;;;;17.09;61.29;99694.27;1722649;83;21332;-75
2021/10/12 13:24:47;;;;;;;23.83;10.58;;;;;;;17.16;61.13;99694.16;1714904;83;21433;-75
2021/10/12 13:27:54;;;;;;;27.32;10.82;;;;;;;17.17;60.79;99691.16;1716439;83;21308;-75
2021/10/12 13:30:59;;;;;;;17.32;9.23;;;;;;;17.18;60.61;99693.41;1725091;83;21891;-75
2021/10/12 13:34:05;;;;;;;20.77;9.38;;;;;;;17.14;60.09;99692.19;1718237;82;21659;-75
2021/10/12 13:37:11;;;;;;;25.08;9.83;;;;;;;17.09;59.93;99687.36;1714324;83;21322;-76
2021/10/12 13:40:17;;;;;;;37.83;9.25;;;;;;;17.06;60.22;99682.30;1724539;83;21347;-75
2021/10/12 13:43:25;;;;;;;25.30;9.45;;;;;;;17.05;60.14;99677.31;1721786;82;21349;-75
2021/10/12 13:46:31;;;;;;;22.17;8.00;;;;;;;17.02;60.12;99681.07;1703885;84;21325;-75
2021/10/12 13:49:37;;;;;;;23.02;7.42;;;;;;;16.98;60.09;99683.45;1700656;84;21856;-75
2021/10/12 13:52:42;;;;;;;24.40;8.75;;;;;;;16.94;59.63;99678.63;1701770;84;21350;-75
2021/10/12 13:55:48;;;;;;;23.42;7.70;;;;;;;16.91;59.62;99677.19;1703693;84;21348;-75
2021/10/12 13:58:53;;;;;;;29.15;7.55;;;;;;;16.89;59.59;99674.34;1704226;84;21913;-75
2021/10/12 14:01:59;;;;;;;19.17;8.35;;;;;;;16.85;59.60;99669.84;1703547;84;21388;-75
2021/10/12 14:05:05;;;;;;;18.48;9.08;;;;;;;16.81;59.74;99665.31;1703559;84;21320;-75
2021/10/12 14:08:12;;;;;;;22.10;8.08;;;;;;;16.79;59.88;99669.38;1703884;84;21341;-75
2021/10/12 14:11:19;;;;;;;19.00;9.03;;;;;;;16.71;60.04;99662.23;1707933;83;21256;-75
2021/10/12 14:14:25;;;;;;;19.73;8.45;;;;;;;16.65;60.26;99667.28;1734044;83;21308;-75
2021/10/12 14:17:31;;;;;;;19.32;8.73;;;;;;;16.57;60.54;99667.08;1734094;83;21979;-75
2021/10/12 14:20:37;;;;;;;17.60;8.35;;;;;;;16.49;60.79;99670.67;1734226;82;21320;-75
2021/10/12 14:23:42;;;;;;;21.10;8.93;;;;;;;16.41;61.09;99666.84;1733929;82;21517;-75
2021/10/12 14:26:48;;;;;;;22.73;9.58;;;;;;;16.32;61.37;99664.38;1710589;83;21316;-75
2021/10/12 14:29:59;;;;;;;21.80;8.95;;;;;;;16.23;61.61;99663.02;1734287;82;22475;-75
2021/10/12 14:33:01;;;;;;;23.55;8.65;;;;;;;16.15;61.82;99663.84;1733136;83;21340;-75
2021/10/12 14:36:08;;;;;;;27.13;9.45;;;;;;;16.05;62.15;99664.38;1734110;83;21868;-75